sensor_id;sensor_type;location;lat;lon;timestamp;P1;durP1;ratioP1;P2;durP2;ratioP2
7833;SDS011;3962;42.696;23.354;2023-11-21T00:01:04;16.13;;;15.43;;
7833;SDS011;3962;42.696;23.354;2023-11-21T00:03:33;15.80;;;15.10;;
7833;SDS011;3962;42.696;23.354;2023-11-21T00:06:00;15.83;;;15.13;;
7833;SDS011;3962;42.696;23.354;2023-11-21T00:08:29;19.97;;;19.03;;
7833;SDS011;3962;42.696;23.354;2023-11-21T00:10:56;19.77;;;18.80;;
7833;SDS011;3962;42.696;23.354;2023-11-21T00:13:25;20.37;;;19.37;;
7833;SDS011;3962;42.696;23.354;2023-11-21T00:15:52;21.10;;;20.10;;
7833;SDS011;3962;42.696;23.354;2023-11-21T00:18:19;20.50;;;19.60;;
7833;SDS011;3962;42.696;23.354;2023-11-21T00:20:46;20.57;;;19.57;;
7833;SDS011;3962;42.696;23.354;2023-11-21T00:23:13;20.60;;;19.67;;
7833;SDS011;3962;42.696;23.354;2023-11-21T00:25:42;19.63;;;18.70;;
7833;SDS011;3962;42.696;23.354;2023-11-21T00:28:09;19.83;;;18.93;;
7833;SDS011;3962;42.696;23.354;2023-11-21T00:30:36;20.70;;;19.70;;
7833;SDS011;3962;42.696;23.354;2023-11-21T00:33:03;19.10;;;18.20;;
7833;SDS011;3962;42.696;23.354;2023-11-21T00:35:30;15.13;;;14.53;;
7833;SDS011;3962;42.696;23.354;2023-11-21T00:37:57;16.73;;;16.03;;
7833;SDS011;3962;42.696;23.354;2023-11-21T00:40:24;18.43;;;17.63;;
7833;SDS011;3962;42.696;23.354;2023-11-21T00:42:52;14.97;;;14.37;;
7833;SDS011;3962;42.696;23.354;2023-11-21T00:45:19;16.93;;;16.23;;
7833;SDS011;3962;42.696;23.354;2023-11-21T00:47:45;17.00;;;16.30;;
7833;SDS011;3962;42.696;23.354;2023-11-21T00:50:12;15.53;;;14.87;;
7833;SDS011;3962;42.696;23.354;2023-11-21T00:52:40;15.67;;;14.97;;
7833;SDS011;3962;42.696;23.354;2023-11-21T00:55:07;15.33;;;14.67;;
7833;SDS011;3962;42.696;23.354;2023-11-21T00:57:35;14.73;;;14.13;;
7833;SDS011;3962;42.696;23.354;2023-11-21T01:00:04;15.63;;;14.93;;
7833;SDS011;3962;42.696;23.354;2023-11-21T01:02:34;16.50;;;15.80;;
7833;SDS011;3962;42.696;23.354;2023-11-21T01:05:01;15.30;;;14.67;;
7833;SDS011;3962;42.696;23.354;2023-11-21T01:07:28;15.90;;;15.20;;
7833;SDS011;3962;42.696;23.354;2023-11-21T01:09:55;16.10;;;15.40;;
7833;SDS011;3962;42.696;23.354;2023-11-21T01:12:22;15.80;;;15.10;;
7833;SDS011;3962;42.696;23.354;2023-11-21T01:14:50;15.80;;;15.10;;
7833;SDS011;3962;42.696;23.354;2023-11-21T01:17:18;14.20;;;13.60;;
7833;SDS011;3962;42.696;23.354;2023-11-21T01:19:47;14.87;;;14.27;;
7833;SDS011;3962;42.696;23.354;2023-11-21T01:22:14;16.33;;;15.63;;
7833;SDS011;3962;42.696;23.354;2023-11-21T01:24:41;14.53;;;13.93;;
7833;SDS011;3962;42.696;23.354;2023-11-21T01:27:08;17.33;;;16.60;;
7833;SDS011;3962;42.696;23.354;2023-11-21T01:29:35;14.93;;;14.33;;
7833;SDS011;3962;42.696;23.354;2023-11-21T01:32:02;17.70;;;16.90;;
7833;SDS011;3962;42.696;23.354;2023-11-21T01:34:31;17.57;;;16.77;;
7833;SDS011;3962;42.696;23.354;2023-11-21T01:36:57;14.70;;;14.10;;
7833;SDS011;3962;42.696;23.354;2023-11-21T01:39:24;16.80;;;16.10;;
7833;SDS011;3962;42.696;23.354;2023-11-21T01:41:52;17.10;;;16.40;;
7833;SDS011;3962;42.696;23.354;2023-11-21T01:44:19;16.53;;;15.83;;
7833;SDS011;3962;42.696;23.354;2023-11-21T01:46:46;17.23;;;16.53;;
7833;SDS011;3962;42.696;23.354;2023-11-21T01:49:13;17.90;;;17.10;;
7833;SDS011;3962;42.696;23.354;2023-11-21T01:51:42;15.57;;;14.87;;
7833;SDS011;3962;42.696;23.354;2023-11-21T01:54:11;16.07;;;15.37;;
7833;SDS011;3962;42.696;23.354;2023-11-21T01:56:39;19.17;;;18.37;;
7833;SDS011;3962;42.696;23.354;2023-11-21T01:59:06;15.07;;;14.47;;
7833;SDS011;3962;42.696;23.354;2023-11-21T02:01:33;15.20;;;14.57;;
7833;SDS011;3962;42.696;23.354;2023-11-21T02:04:00;16.60;;;15.90;;
7833;SDS011;3962;42.696;23.354;2023-11-21T02:06:27;16.60;;;15.90;;
7833;SDS011;3962;42.696;23.354;2023-11-21T02:08:57;16.33;;;15.63;;
7833;SDS011;3962;42.696;23.354;2023-11-21T02:11:24;15.43;;;14.77;;
7833;SDS011;3962;42.696;23.354;2023-11-21T02:13:52;16.13;;;15.43;;
7833;SDS011;3962;42.696;23.354;2023-11-21T02:16:20;16.97;;;16.27;;
7833;SDS011;3962;42.696;23.354;2023-11-21T02:18:47;16.80;;;16.10;;
7833;SDS011;3962;42.696;23.354;2023-11-21T02:21:14;15.43;;;14.77;;
7833;SDS011;3962;42.696;23.354;2023-11-21T02:23:43;17.20;;;16.50;;
7833;SDS011;3962;42.696;23.354;2023-11-21T02:26:11;16.53;;;15.83;;
7833;SDS011;3962;42.696;23.354;2023-11-21T02:28:39;15.57;;;14.90;;
7833;SDS011;3962;42.696;23.354;2023-11-21T02:31:06;16.00;;;15.30;;
7833;SDS011;3962;42.696;23.354;2023-11-21T02:33:33;17.53;;;16.80;;
7833;SDS011;3962;42.696;23.354;2023-11-21T02:36:00;16.27;;;15.57;;
7833;SDS011;3962;42.696;23.354;2023-11-21T02:38:26;16.80;;;16.10;;
7833;SDS011;3962;42.696;23.354;2023-11-21T02:40:56;16.03;;;15.33;;
7833;SDS011;3962;42.696;23.354;2023-11-21T02:43:24;14.97;;;14.37;;
7833;SDS011;3962;42.696;23.354;2023-11-21T02:45:51;17.10;;;16.40;;
7833;SDS011;3962;42.696;23.354;2023-11-21T02:48:18;15.13;;;14.53;;
7833;SDS011;3962;42.696;23.354;2023-11-21T02:50:44;14.60;;;14.00;;
7833;SDS011;3962;42.696;23.354;2023-11-21T02:53:11;15.73;;;15.03;;
7833;SDS011;3962;42.696;23.354;2023-11-21T02:55:38;16.80;;;16.10;;
7833;SDS011;3962;42.696;23.354;2023-11-21T02:58:06;16.53;;;15.83;;
7833;SDS011;3962;42.696;23.354;2023-11-21T03:00:33;17.27;;;16.57;;
7833;SDS011;3962;42.696;23.354;2023-11-21T03:03:00;17.10;;;16.40;;
7833;SDS011;3962;42.696;23.354;2023-11-21T03:05:27;16.90;;;16.20;;
7833;SDS011;3962;42.696;23.354;2023-11-21T03:07:54;17.57;;;16.80;;
7833;SDS011;3962;42.696;23.354;2023-11-21T03:10:21;16.23;;;15.53;;
7833;SDS011;3962;42.696;23.354;2023-11-21T03:12:48;17.43;;;16.73;;
7833;SDS011;3962;42.696;23.354;2023-11-21T03:15:16;18.20;;;17.40;;
7833;SDS011;3962;42.696;23.354;2023-11-21T03:17:43;17.37;;;16.67;;
7833;SDS011;3962;42.696;23.354;2023-11-21T03:20:10;16.90;;;16.20;;
7833;SDS011;3962;42.696;23.354;2023-11-21T03:22:39;17.93;;;17.13;;
7833;SDS011;3962;42.696;23.354;2023-11-21T03:25:06;16.77;;;16.07;;
7833;SDS011;3962;42.696;23.354;2023-11-21T03:27:35;17.90;;;17.10;;
7833;SDS011;3962;42.696;23.354;2023-11-21T03:30:04;17.90;;;17.10;;
7833;SDS011;3962;42.696;23.354;2023-11-21T03:32:34;17.23;;;16.50;;
7833;SDS011;3962;42.696;23.354;2023-11-21T03:35:01;16.03;;;15.33;;
7833;SDS011;3962;42.696;23.354;2023-11-21T03:37:28;15.53;;;14.83;;
7833;SDS011;3962;42.696;23.354;2023-11-21T03:39:55;16.90;;;16.20;;
7833;SDS011;3962;42.696;23.354;2023-11-21T03:42:22;16.83;;;16.13;;
7833;SDS011;3962;42.696;23.354;2023-11-21T03:44:50;16.87;;;16.17;;
7833;SDS011;3962;42.696;23.354;2023-11-21T03:47:17;18.17;;;17.37;;
7833;SDS011;3962;42.696;23.354;2023-11-21T03:49:46;16.93;;;16.23;;
7833;SDS011;3962;42.696;23.354;2023-11-21T03:52:13;16.00;;;15.30;;
7833;SDS011;3962;42.696;23.354;2023-11-21T03:54:40;17.23;;;16.53;;
7833;SDS011;3962;42.696;23.354;2023-11-21T03:57:08;16.60;;;15.90;;
7833;SDS011;3962;42.696;23.354;2023-11-21T03:59:35;16.47;;;15.77;;
7833;SDS011;3962;42.696;23.354;2023-11-21T04:02:01;16.87;;;16.17;;
7833;SDS011;3962;42.696;23.354;2023-11-21T04:04:28;16.00;;;15.30;;
7833;SDS011;3962;42.696;23.354;2023-11-21T04:06:57;17.03;;;16.33;;
7833;SDS011;3962;42.696;23.354;2023-11-21T04:09:23;18.07;;;17.27;;
7833;SDS011;3962;42.696;23.354;2023-11-21T04:11:51;17.97;;;17.17;;
7833;SDS011;3962;42.696;23.354;2023-11-21T04:14:18;16.77;;;16.07;;
7833;SDS011;3962;42.696;23.354;2023-11-21T04:16:44;18.57;;;17.77;;
7833;SDS011;3962;42.696;23.354;2023-11-21T04:19:11;18.70;;;17.90;;
7833;SDS011;3962;42.696;23.354;2023-11-21T04:21:39;19.60;;;18.77;;
7833;SDS011;3962;42.696;23.354;2023-11-21T04:24:08;16.93;;;16.23;;
7833;SDS011;3962;42.696;23.354;2023-11-21T04:26:35;18.53;;;17.73;;
7833;SDS011;3962;42.696;23.354;2023-11-21T04:29:02;18.07;;;17.27;;
7833;SDS011;3962;42.696;23.354;2023-11-21T04:31:29;18.80;;;18.00;;
7833;SDS011;3962;42.696;23.354;2023-11-21T04:33:57;17.30;;;16.60;;
7833;SDS011;3962;42.696;23.354;2023-11-21T04:36:23;17.87;;;17.07;;
7833;SDS011;3962;42.696;23.354;2023-11-21T04:38:50;18.40;;;17.60;;
7833;SDS011;3962;42.696;23.354;2023-11-21T04:41:18;18.30;;;17.50;;
7833;SDS011;3962;42.696;23.354;2023-11-21T04:43:45;18.27;;;17.47;;
7833;SDS011;3962;42.696;23.354;2023-11-21T04:46:12;17.00;;;16.30;;
7833;SDS011;3962;42.696;23.354;2023-11-21T04:48:39;17.93;;;17.13;;
7833;SDS011;3962;42.696;23.354;2023-11-21T04:51:06;15.37;;;14.70;;
7833;SDS011;3962;42.696;23.354;2023-11-21T04:53:33;17.90;;;17.10;;
7833;SDS011;3962;42.696;23.354;2023-11-21T04:56:00;18.40;;;17.60;;
7833;SDS011;3962;42.696;23.354;2023-11-21T04:58:28;17.80;;;17.00;;
7833;SDS011;3962;42.696;23.354;2023-11-21T05:00:55;17.27;;;16.57;;
7833;SDS011;3962;42.696;23.354;2023-11-21T05:03:22;18.80;;;18.00;;
7833;SDS011;3962;42.696;23.354;2023-11-21T05:05:49;17.00;;;16.30;;
7833;SDS011;3962;42.696;23.354;2023-11-21T05:08:16;16.50;;;15.80;;
7833;SDS011;3962;42.696;23.354;2023-11-21T05:10:44;17.10;;;16.40;;
7833;SDS011;3962;42.696;23.354;2023-11-21T05:13:10;16.60;;;15.90;;
7833;SDS011;3962;42.696;23.354;2023-11-21T05:15:39;16.80;;;16.10;;
7833;SDS011;3962;42.696;23.354;2023-11-21T05:18:06;16.90;;;16.20;;
7833;SDS011;3962;42.696;23.354;2023-11-21T05:20:33;16.40;;;15.70;;
7833;SDS011;3962;42.696;23.354;2023-11-21T05:22:59;15.73;;;15.03;;
7833;SDS011;3962;42.696;23.354;2023-11-21T05:25:26;17.07;;;16.37;;
7833;SDS011;3962;42.696;23.354;2023-11-21T05:27:53;16.83;;;16.13;;
7833;SDS011;3962;42.696;23.354;2023-11-21T05:30:21;16.13;;;15.43;;
7833;SDS011;3962;42.696;23.354;2023-11-21T05:32:49;17.33;;;16.63;;
7833;SDS011;3962;42.696;23.354;2023-11-21T05:35:16;15.77;;;15.07;;
7833;SDS011;3962;42.696;23.354;2023-11-21T05:37:43;16.80;;;16.10;;
7833;SDS011;3962;42.696;23.354;2023-11-21T05:40:11;16.83;;;16.13;;
7833;SDS011;3962;42.696;23.354;2023-11-21T05:42:39;16.77;;;16.07;;
7833;SDS011;3962;42.696;23.354;2023-11-21T05:45:07;16.30;;;15.60;;
7833;SDS011;3962;42.696;23.354;2023-11-21T05:47:36;15.97;;;15.27;;
7833;SDS011;3962;42.696;23.354;2023-11-21T05:50:07;15.63;;;14.93;;
7833;SDS011;3962;42.696;23.354;2023-11-21T05:52:39;17.03;;;16.33;;
7833;SDS011;3962;42.696;23.354;2023-11-21T05:55:06;16.00;;;15.30;;
7833;SDS011;3962;42.696;23.354;2023-11-21T05:57:33;17.30;;;16.57;;
7833;SDS011;3962;42.696;23.354;2023-11-21T06:00:02;19.60;;;18.77;;
7833;SDS011;3962;42.696;23.354;2023-11-21T06:02:36;16.97;;;16.27;;
7833;SDS011;3962;42.696;23.354;2023-11-21T06:05:04;15.43;;;14.73;;
7833;SDS011;3962;42.696;23.354;2023-11-21T06:07:33;16.40;;;15.70;;
7833;SDS011;3962;42.696;23.354;2023-11-21T06:10:00;15.90;;;15.20;;
7833;SDS011;3962;42.696;23.354;2023-11-21T06:12:28;16.10;;;15.40;;
7833;SDS011;3962;42.696;23.354;2023-11-21T06:14:54;16.03;;;15.33;;
7833;SDS011;3962;42.696;23.354;2023-11-21T06:17:21;16.63;;;15.93;;
7833;SDS011;3962;42.696;23.354;2023-11-21T06:19:50;16.20;;;15.50;;
7833;SDS011;3962;42.696;23.354;2023-11-21T06:22:18;16.17;;;15.47;;
7833;SDS011;3962;42.696;23.354;2023-11-21T06:24:46;15.53;;;14.83;;
7833;SDS011;3962;42.696;23.354;2023-11-21T06:27:13;16.20;;;15.50;;
7833;SDS011;3962;42.696;23.354;2023-11-21T06:29:41;17.07;;;16.37;;
7833;SDS011;3962;42.696;23.354;2023-11-21T06:32:08;16.43;;;15.73;;
7833;SDS011;3962;42.696;23.354;2023-11-21T06:34:35;14.07;;;13.47;;
7833;SDS011;3962;42.696;23.354;2023-11-21T06:37:02;14.67;;;14.07;;
7833;SDS011;3962;42.696;23.354;2023-11-21T06:39:29;16.27;;;15.57;;
7833;SDS011;3962;42.696;23.354;2023-11-21T06:41:57;15.03;;;14.43;;
7833;SDS011;3962;42.696;23.354;2023-11-21T06:44:25;13.77;;;13.17;;
7833;SDS011;3962;42.696;23.354;2023-11-21T06:46:53;16.27;;;15.57;;
7833;SDS011;3962;42.696;23.354;2023-11-21T06:49:19;14.57;;;13.97;;
7833;SDS011;3962;42.696;23.354;2023-11-21T06:51:46;15.90;;;15.20;;
7833;SDS011;3962;42.696;23.354;2023-11-21T06:54:13;15.70;;;15.00;;
7833;SDS011;3962;42.696;23.354;2023-11-21T06:56:40;15.03;;;14.43;;
7833;SDS011;3962;42.696;23.354;2023-11-21T06:59:09;15.93;;;15.23;;
7833;SDS011;3962;42.696;23.354;2023-11-21T07:01:36;15.77;;;15.07;;
7833;SDS011;3962;42.696;23.354;2023-11-21T07:04:04;15.73;;;15.03;;
7833;SDS011;3962;42.696;23.354;2023-11-21T07:06:31;16.43;;;15.73;;
7833;SDS011;3962;42.696;23.354;2023-11-21T07:08:58;15.87;;;15.17;;
7833;SDS011;3962;42.696;23.354;2023-11-21T07:11:27;14.43;;;13.83;;
7833;SDS011;3962;42.696;23.354;2023-11-21T07:13:54;14.53;;;13.93;;
7833;SDS011;3962;42.696;23.354;2023-11-21T07:16:22;13.50;;;12.90;;
7833;SDS011;3962;42.696;23.354;2023-11-21T07:18:50;16.23;;;15.53;;
7833;SDS011;3962;42.696;23.354;2023-11-21T07:21:17;14.03;;;13.43;;
7833;SDS011;3962;42.696;23.354;2023-11-21T07:23:44;14.13;;;13.53;;
7833;SDS011;3962;42.696;23.354;2023-11-21T07:26:11;15.30;;;14.60;;
7833;SDS011;3962;42.696;23.354;2023-11-21T07:28:38;14.80;;;14.20;;
7833;SDS011;3962;42.696;23.354;2023-11-21T07:31:05;15.57;;;14.90;;
7833;SDS011;3962;42.696;23.354;2023-11-21T07:33:33;15.23;;;14.60;;
7833;SDS011;3962;42.696;23.354;2023-11-21T07:36:00;15.13;;;14.50;;
7833;SDS011;3962;42.696;23.354;2023-11-21T07:38:27;13.63;;;13.03;;
7833;SDS011;3962;42.696;23.354;2023-11-21T07:40:54;13.30;;;12.70;;
7833;SDS011;3962;42.696;23.354;2023-11-21T07:43:21;16.17;;;15.47;;
7833;SDS011;3962;42.696;23.354;2023-11-21T07:45:47;13.33;;;12.77;;
7833;SDS011;3962;42.696;23.354;2023-11-21T07:48:14;13.73;;;13.13;;
7833;SDS011;3962;42.696;23.354;2023-11-21T07:50:43;14.23;;;13.63;;
7833;SDS011;3962;42.696;23.354;2023-11-21T07:53:12;13.70;;;13.10;;
7833;SDS011;3962;42.696;23.354;2023-11-21T07:55:39;13.33;;;12.73;;
7833;SDS011;3962;42.696;23.354;2023-11-21T07:58:07;14.77;;;14.17;;
7833;SDS011;3962;42.696;23.354;2023-11-21T08:00:34;12.97;;;12.43;;
7833;SDS011;3962;42.696;23.354;2023-11-21T08:03:00;12.03;;;11.53;;
7833;SDS011;3962;42.696;23.354;2023-11-21T08:05:27;12.97;;;12.47;;
7833;SDS011;3962;42.696;23.354;2023-11-21T08:07:56;11.57;;;11.07;;
7833;SDS011;3962;42.696;23.354;2023-11-21T08:10:22;14.10;;;13.50;;
7833;SDS011;3962;42.696;23.354;2023-11-21T08:12:50;13.70;;;13.10;;
7833;SDS011;3962;42.696;23.354;2023-11-21T08:15:17;13.20;;;12.63;;
7833;SDS011;3962;42.696;23.354;2023-11-21T08:17:44;12.93;;;12.40;;
7833;SDS011;3962;42.696;23.354;2023-11-21T08:20:11;12.10;;;11.60;;
7833;SDS011;3962;42.696;23.354;2023-11-21T08:22:41;12.40;;;11.90;;
7833;SDS011;3962;42.696;23.354;2023-11-21T08:25:10;12.97;;;12.47;;
7833;SDS011;3962;42.696;23.354;2023-11-21T08:27:37;13.37;;;12.77;;
7833;SDS011;3962;42.696;23.354;2023-11-21T08:30:05;11.83;;;11.33;;
7833;SDS011;3962;42.696;23.354;2023-11-21T08:32:33;13.43;;;12.83;;
7833;SDS011;3962;42.696;23.354;2023-11-21T08:35:00;11.83;;;11.33;;
7833;SDS011;3962;42.696;23.354;2023-11-21T08:37:27;13.17;;;12.57;;
7833;SDS011;3962;42.696;23.354;2023-11-21T08:39:57;14.00;;;13.40;;
7833;SDS011;3962;42.696;23.354;2023-11-21T08:42:27;15.50;;;14.80;;
7833;SDS011;3962;42.696;23.354;2023-11-21T08:44:55;16.23;;;15.53;;
7833;SDS011;3962;42.696;23.354;2023-11-21T08:47:23;13.73;;;13.13;;
7833;SDS011;3962;42.696;23.354;2023-11-21T08:49:51;12.43;;;11.93;;
7833;SDS011;3962;42.696;23.354;2023-11-21T08:52:18;14.70;;;14.10;;
7833;SDS011;3962;42.696;23.354;2023-11-21T08:54:46;14.00;;;13.40;;
7833;SDS011;3962;42.696;23.354;2023-11-21T08:57:13;14.03;;;13.43;;
7833;SDS011;3962;42.696;23.354;2023-11-21T08:59:42;13.03;;;12.50;;
7833;SDS011;3962;42.696;23.354;2023-11-21T09:02:09;13.67;;;13.07;;
7833;SDS011;3962;42.696;23.354;2023-11-21T09:04:36;14.43;;;13.83;;
7833;SDS011;3962;42.696;23.354;2023-11-21T09:07:03;14.57;;;13.97;;
7833;SDS011;3962;42.696;23.354;2023-11-21T09:09:30;14.53;;;13.93;;
7833;SDS011;3962;42.696;23.354;2023-11-21T09:11:57;15.13;;;14.47;;
7833;SDS011;3962;42.696;23.354;2023-11-21T09:14:25;14.40;;;13.80;;
7833;SDS011;3962;42.696;23.354;2023-11-21T09:16:54;13.60;;;13.00;;
7833;SDS011;3962;42.696;23.354;2023-11-21T09:19:21;15.03;;;14.37;;
7833;SDS011;3962;42.696;23.354;2023-11-21T09:21:50;13.73;;;13.13;;
7833;SDS011;3962;42.696;23.354;2023-11-21T09:24:16;14.10;;;13.50;;
7833;SDS011;3962;42.696;23.354;2023-11-21T09:26:43;13.97;;;13.37;;
7833;SDS011;3962;42.696;23.354;2023-11-21T09:29:10;14.10;;;13.50;;
7833;SDS011;3962;42.696;23.354;2023-11-21T09:31:37;12.20;;;11.70;;
7833;SDS011;3962;42.696;23.354;2023-11-21T09:34:05;13.80;;;13.20;;
7833;SDS011;3962;42.696;23.354;2023-11-21T09:36:32;14.13;;;13.53;;
7833;SDS011;3962;42.696;23.354;2023-11-21T09:39:00;14.20;;;13.60;;
7833;SDS011;3962;42.696;23.354;2023-11-21T09:41:30;15.03;;;14.33;;
7833;SDS011;3962;42.696;23.354;2023-11-21T09:44:04;13.57;;;12.97;;
7833;SDS011;3962;42.696;23.354;2023-11-21T09:46:38;14.23;;;13.63;;
7833;SDS011;3962;42.696;23.354;2023-11-21T09:49:09;14.73;;;14.03;;
7833;SDS011;3962;42.696;23.354;2023-11-21T09:51:38;12.93;;;12.40;;
7833;SDS011;3962;42.696;23.354;2023-11-21T09:54:07;12.87;;;12.37;;
7833;SDS011;3962;42.696;23.354;2023-11-21T09:56:36;11.53;;;11.03;;
7833;SDS011;3962;42.696;23.354;2023-11-21T09:59:04;14.50;;;13.90;;
7833;SDS011;3962;42.696;23.354;2023-11-21T10:01:36;14.80;;;14.20;;
7833;SDS011;3962;42.696;23.354;2023-11-21T10:04:03;13.83;;;13.23;;
7833;SDS011;3962;42.696;23.354;2023-11-21T10:06:38;11.73;;;11.23;;
7833;SDS011;3962;42.696;23.354;2023-11-21T10:09:07;12.47;;;11.97;;
7833;SDS011;3962;42.696;23.354;2023-11-21T10:11:37;12.83;;;12.30;;
7833;SDS011;3962;42.696;23.354;2023-11-21T10:14:07;12.30;;;11.80;;
7833;SDS011;3962;42.696;23.354;2023-11-21T10:16:37;12.23;;;11.73;;
7833;SDS011;3962;42.696;23.354;2023-11-21T10:19:05;11.77;;;11.27;;
7833;SDS011;3962;42.696;23.354;2023-11-21T10:21:35;13.10;;;12.50;;
7833;SDS011;3962;42.696;23.354;2023-11-21T10:24:05;12.00;;;11.50;;
7833;SDS011;3962;42.696;23.354;2023-11-21T10:26:33;12.07;;;11.57;;
7833;SDS011;3962;42.696;23.354;2023-11-21T10:29:01;11.33;;;10.83;;
7833;SDS011;3962;42.696;23.354;2023-11-21T10:31:29;10.30;;;9.90;;
7833;SDS011;3962;42.696;23.354;2023-11-21T10:34:10;11.60;;;11.10;;
7833;SDS011;3962;42.696;23.354;2023-11-21T10:36:42;11.40;;;10.90;;
7833;SDS011;3962;42.696;23.354;2023-11-21T10:39:09;11.60;;;11.10;;
7833;SDS011;3962;42.696;23.354;2023-11-21T10:41:43;12.53;;;12.03;;
7833;SDS011;3962;42.696;23.354;2023-11-21T10:44:10;11.70;;;11.20;;
7833;SDS011;3962;42.696;23.354;2023-11-21T10:46:39;10.47;;;10.07;;
7833;SDS011;3962;42.696;23.354;2023-11-21T10:49:08;12.93;;;12.43;;
7833;SDS011;3962;42.696;23.354;2023-11-21T10:51:35;10.93;;;10.47;;
7833;SDS011;3962;42.696;23.354;2023-11-21T10:54:03;10.97;;;10.47;;
7833;SDS011;3962;42.696;23.354;2023-11-21T10:56:32;9.87;;;9.47;;
7833;SDS011;3962;42.696;23.354;2023-11-21T10:59:05;12.00;;;11.50;;
7833;SDS011;3962;42.696;23.354;2023-11-21T11:01:34;10.40;;;10.00;;
7833;SDS011;3962;42.696;23.354;2023-11-21T11:04:01;11.33;;;10.83;;
7833;SDS011;3962;42.696;23.354;2023-11-21T11:06:34;11.83;;;11.33;;
7833;SDS011;3962;42.696;23.354;2023-11-21T11:09:05;12.10;;;11.60;;
7833;SDS011;3962;42.696;23.354;2023-11-21T11:11:33;11.40;;;10.90;;
7833;SDS011;3962;42.696;23.354;2023-11-21T11:14:04;11.77;;;11.27;;
7833;SDS011;3962;42.696;23.354;2023-11-21T11:16:31;10.57;;;10.17;;
7833;SDS011;3962;42.696;23.354;2023-11-21T11:18:59;11.43;;;10.93;;
7833;SDS011;3962;42.696;23.354;2023-11-21T11:21:28;10.07;;;9.67;;
7833;SDS011;3962;42.696;23.354;2023-11-21T11:24:16;11.67;;;11.17;;
7833;SDS011;3962;42.696;23.354;2023-11-21T11:27:06;11.03;;;10.53;;
7833;SDS011;3962;42.696;23.354;2023-11-21T11:29:42;11.57;;;11.07;;
7833;SDS011;3962;42.696;23.354;2023-11-21T11:32:21;10.13;;;9.73;;
7833;SDS011;3962;42.696;23.354;2023-11-21T11:35:07;10.60;;;10.20;;
7833;SDS011;3962;42.696;23.354;2023-11-21T11:37:41;10.57;;;10.17;;
7833;SDS011;3962;42.696;23.354;2023-11-21T11:40:12;12.43;;;11.93;;
7833;SDS011;3962;42.696;23.354;2023-11-21T11:42:41;10.50;;;10.10;;
7833;SDS011;3962;42.696;23.354;2023-11-21T11:45:22;10.33;;;9.93;;
7833;SDS011;3962;42.696;23.354;2023-11-21T11:47:59;11.03;;;10.53;;
7833;SDS011;3962;42.696;23.354;2023-11-21T11:50:26;10.17;;;9.77;;
7833;SDS011;3962;42.696;23.354;2023-11-21T11:52:53;9.80;;;9.40;;
7833;SDS011;3962;42.696;23.354;2023-11-21T11:55:24;9.83;;;9.43;;
7833;SDS011;3962;42.696;23.354;2023-11-21T11:57:55;10.57;;;10.17;;
7833;SDS011;3962;42.696;23.354;2023-11-21T12:00:22;11.37;;;10.87;;
7833;SDS011;3962;42.696;23.354;2023-11-21T12:03:03;9.57;;;9.17;;
7833;SDS011;3962;42.696;23.354;2023-11-21T12:05:31;10.40;;;10.00;;
7833;SDS011;3962;42.696;23.354;2023-11-21T12:08:01;11.23;;;10.73;;
7833;SDS011;3962;42.696;23.354;2023-11-21T12:10:31;10.63;;;10.23;;
7833;SDS011;3962;42.696;23.354;2023-11-21T12:12:59;11.13;;;10.63;;
7833;SDS011;3962;42.696;23.354;2023-11-21T12:15:27;10.47;;;10.07;;
7833;SDS011;3962;42.696;23.354;2023-11-21T12:17:56;10.77;;;10.30;;
7833;SDS011;3962;42.696;23.354;2023-11-21T12:20:25;11.70;;;11.20;;
7833;SDS011;3962;42.696;23.354;2023-11-21T12:22:53;11.73;;;11.23;;
7833;SDS011;3962;42.696;23.354;2023-11-21T12:25:21;11.27;;;10.77;;
7833;SDS011;3962;42.696;23.354;2023-11-21T12:27:51;12.23;;;11.73;;
7833;SDS011;3962;42.696;23.354;2023-11-21T12:30:19;13.00;;;12.50;;
7833;SDS011;3962;42.696;23.354;2023-11-21T12:32:48;13.50;;;12.90;;
7833;SDS011;3962;42.696;23.354;2023-11-21T12:35:17;12.07;;;11.57;;
7833;SDS011;3962;42.696;23.354;2023-11-21T12:37:45;12.47;;;11.97;;
7833;SDS011;3962;42.696;23.354;2023-11-21T12:40:13;11.27;;;10.77;;
7833;SDS011;3962;42.696;23.354;2023-11-21T12:42:44;12.77;;;12.27;;
7833;SDS011;3962;42.696;23.354;2023-11-21T12:45:21;12.47;;;11.97;;
7833;SDS011;3962;42.696;23.354;2023-11-21T12:47:51;12.20;;;11.70;;
7833;SDS011;3962;42.696;23.354;2023-11-21T12:50:20;13.20;;;12.60;;
7833;SDS011;3962;42.696;23.354;2023-11-21T12:52:49;14.10;;;13.50;;
7833;SDS011;3962;42.696;23.354;2023-11-21T12:55:19;11.67;;;11.17;;
7833;SDS011;3962;42.696;23.354;2023-11-21T12:57:48;12.23;;;11.73;;
7833;SDS011;3962;42.696;23.354;2023-11-21T13:00:17;12.73;;;12.23;;
7833;SDS011;3962;42.696;23.354;2023-11-21T13:02:55;11.87;;;11.37;;
7833;SDS011;3962;42.696;23.354;2023-11-21T13:05:24;12.80;;;12.30;;
7833;SDS011;3962;42.696;23.354;2023-11-21T13:07:54;12.70;;;12.20;;
7833;SDS011;3962;42.696;23.354;2023-11-21T13:10:23;12.80;;;12.30;;
7833;SDS011;3962;42.696;23.354;2023-11-21T13:12:54;12.50;;;12.00;;
7833;SDS011;3962;42.696;23.354;2023-11-21T13:15:23;12.50;;;12.00;;
7833;SDS011;3962;42.696;23.354;2023-11-21T13:17:50;12.27;;;11.77;;
7833;SDS011;3962;42.696;23.354;2023-11-21T13:20:20;13.13;;;12.53;;
7833;SDS011;3962;42.696;23.354;2023-11-21T13:22:47;12.17;;;11.67;;
7833;SDS011;3962;42.696;23.354;2023-11-21T13:25:15;12.80;;;12.30;;
7833;SDS011;3962;42.696;23.354;2023-11-21T13:27:43;12.97;;;12.43;;
7833;SDS011;3962;42.696;23.354;2023-11-21T13:30:11;12.70;;;12.20;;
7833;SDS011;3962;42.696;23.354;2023-11-21T13:32:41;12.67;;;12.17;;
7833;SDS011;3962;42.696;23.354;2023-11-21T13:35:09;11.03;;;10.53;;
7833;SDS011;3962;42.696;23.354;2023-11-21T13:37:48;12.70;;;12.20;;
7833;SDS011;3962;42.696;23.354;2023-11-21T13:40:19;13.27;;;12.67;;
7833;SDS011;3962;42.696;23.354;2023-11-21T13:42:51;11.60;;;11.10;;
7833;SDS011;3962;42.696;23.354;2023-11-21T13:45:23;13.40;;;12.80;;
7833;SDS011;3962;42.696;23.354;2023-11-21T13:47:51;12.77;;;12.27;;
7833;SDS011;3962;42.696;23.354;2023-11-21T13:50:22;13.23;;;12.63;;
7833;SDS011;3962;42.696;23.354;2023-11-21T13:52:56;12.23;;;11.73;;
7833;SDS011;3962;42.696;23.354;2023-11-21T13:55:24;12.07;;;11.57;;
7833;SDS011;3962;42.696;23.354;2023-11-21T13:57:52;11.70;;;11.20;;
7833;SDS011;3962;42.696;23.354;2023-11-21T14:00:19;13.23;;;12.63;;
7833;SDS011;3962;42.696;23.354;2023-11-21T14:03:15;10.73;;;10.33;;
7833;SDS011;3962;42.696;23.354;2023-11-21T14:05:47;12.47;;;11.97;;
7833;SDS011;3962;42.696;23.354;2023-11-21T14:08:18;12.77;;;12.27;;
7833;SDS011;3962;42.696;23.354;2023-11-21T14:10:46;12.40;;;11.90;;
7833;SDS011;3962;42.696;23.354;2023-11-21T14:13:16;12.47;;;11.97;;
7833;SDS011;3962;42.696;23.354;2023-11-21T14:15:43;13.17;;;12.60;;
7833;SDS011;3962;42.696;23.354;2023-11-21T14:18:17;11.73;;;11.23;;
7833;SDS011;3962;42.696;23.354;2023-11-21T14:20:52;12.00;;;11.50;;
7833;SDS011;3962;42.696;23.354;2023-11-21T14:23:21;12.33;;;11.83;;
7833;SDS011;3962;42.696;23.354;2023-11-21T14:25:48;11.93;;;11.43;;
7833;SDS011;3962;42.696;23.354;2023-11-21T14:28:16;11.40;;;10.90;;
7833;SDS011;3962;42.696;23.354;2023-11-21T14:30:45;11.33;;;10.83;;
7833;SDS011;3962;42.696;23.354;2023-11-21T14:33:12;10.70;;;10.30;;
7833;SDS011;3962;42.696;23.354;2023-11-21T14:35:41;12.43;;;11.93;;
7833;SDS011;3962;42.696;23.354;2023-11-21T14:38:08;11.30;;;10.80;;
7833;SDS011;3962;42.696;23.354;2023-11-21T14:40:36;12.17;;;11.67;;
7833;SDS011;3962;42.696;23.354;2023-11-21T14:43:03;12.23;;;11.73;;